Airfield :
LOGIN :

Register | Disclaimer

   EN    FR    IT 

 










Legend :    VFR   Marginal VFR   IFR   Intensive IFR   Very Intensive IFR
Visi :
Ceiling :
>= 8 km
>= 3000ft
5 to 8 km
1000 to 3000 ft
1500m to 5 km
500 to 1000 ft
800 to 1500m
200 to 500 ft
< 800m
< 200 ft
Symbols :   Thunderstorms  Fog  Heavy snow  Heavy precipitations  Wind > 20 kt
SIGMETs :     Misc.  Thunderstorms  Icing  Turbulence  Mountain Waves  Volcanic Ashes






- Airport Elevation : 1036 ft
- IATA code : ERF


EDDE - Erfurt

CURRENT METAR :
  • 070950Z 31011KT 9999 FEW030 BKN046 06/M00 Q1011 TEMPO 30015G25KT

EXPIRED METARs :
  • 070920Z 29009KT 250V330 9999 FEW026 BKN046 08/01 Q1010 TEMPO 30015G25KT
  • 070850Z 29011KT 9999 SCT026 BKN043 06/00 Q1010 TEMPO 30015G25KT
  • 070820Z 31013KT 9999 SCT023TCU BKN043 05/00 Q1009 TEMPO 30015G25KT
  • 070750Z 30013KT 9999 -SHRA SCT023TCU BKN033 04/01 Q1009 TEMPO 30015G25KT
  • 070720Z 29012KT 9999 FEW022 SCT030 05/01 Q1009 TEMPO 29015G25KT

TAF TAF EDDE
Valid from the 07 at 06:00 until the 08 at 06:00 UTC


070500Z 0706/0806 28012KT 9999 BKN012
TEMPO 0706/0716 29015G25KT
BECMG 0707/0708 BKN025
PROB30
TEMPO 0711/0715 TSRA SCT025CB
BECMG 0716/0719 26005KT



MET'MAP, your aeronautical weather chart ! - Copyright ORBIFLY December 2007 - Disclaimer

ORBIFLY MET'MAP TEAM :

Programming & Development : Alexandra Zaïnal
Concept & original design : Baudouin d'Aumeries
Assistance for programming : Marc-Olivier Méhu
Technical & hardware support : Manuel Goepfert

Contact : metmap@orbifly.com




SOURCES & CREDITS :

   NOAA